Time;durP1;ratioP1;P1;durP2;ratioP2;P2;SDS_P1;SDS_P2;PMS_P1;PMS_P2;Temp;Humidity;BMP_temperature;BMP_pressure;BME280_temperature;BME280_humidity;BME280_pressure;Samples;Min_cycle;Max_cycle;Signal;HPM_P1;HPM_P2
2023/01/09 00:01:43;;;;;;;6.82;2.00;;;;;;;;;;5010615;28;20041;-83
2023/01/09 00:04:09;;;;;;;5.82;2.10;;;;;;;;;;5010884;28;20057;-82
2023/01/09 00:06:35;;;;;;;5.78;2.10;;;;;;;;;;5012858;28;20026;-85
2023/01/09 00:09:02;;;;;;;6.03;2.00;;;;;;;;;;5015204;28;20018;-83
2023/01/09 00:11:28;;;;;;;11.77;2.67;;;;;;;;;;5008133;28;20029;-82
2023/01/09 00:13:54;;;;;;;4.35;2.20;;;;;;;;;;5009153;28;20042;-85
2023/01/09 00:16:20;;;;;;;11.52;3.50;;;;;;;;;;5010067;28;20049;-85
2023/01/09 00:18:46;;;;;;;9.90;3.22;;;;;;;;;;5014740;28;20078;-82
2023/01/09 00:21:13;;;;;;;5.93;2.20;;;;;;;;;;5014375;28;20030;-83
2023/01/09 00:23:39;;;;;;;8.05;2.15;;;;;;;;;;5008490;28;20062;-83
2023/01/09 00:26:10;;;;;;;4.60;2.22;;;;;;;;;;5001117;28;20034;-84
2023/01/09 00:28:36;;;;;;;7.57;2.63;;;;;;;;;;5001499;28;20117;-84
2023/01/09 00:31:03;;;;;;;4.50;1.88;;;;;;;;;;5002468;28;20025;-85
2023/01/09 00:33:32;;;;;;;10.90;2.50;;;;;;;;;;5007632;28;20062;-84
2023/01/09 00:35:58;;;;;;;8.48;2.20;;;;;;;;;;5004549;28;20062;-86
2023/01/09 00:38:24;;;;;;;12.95;3.33;;;;;;;;;;4996881;28;20034;-84
2023/01/09 00:40:50;;;;;;;6.97;2.30;;;;;;;;;;4997007;28;20031;-84
2023/01/09 00:43:18;;;;;;;8.85;2.78;;;;;;;;;;4997824;28;20463;-84
2023/01/09 00:45:44;;;;;;;10.20;3.22;;;;;;;;;;4988269;28;20040;-83
2023/01/09 00:48:12;;;;;;;9.23;2.63;;;;;;;;;;4990204;28;20026;-84
2023/01/09 00:50:39;;;;;;;6.85;2.63;;;;;;;;;;4987425;28;20113;-84
2023/01/09 00:53:08;;;;;;;7.07;2.80;;;;;;;;;;4986737;28;20075;-85
2023/01/09 00:55:36;;;;;;;4.78;3.17;;;;;;;;;;4984277;28;20041;-84
2023/01/09 00:58:02;;;;;;;10.00;2.78;;;;;;;;;;4991948;28;20404;-83
2023/01/09 01:00:28;;;;;;;4.75;2.30;;;;;;;;;;4983802;28;20119;-85
2023/01/09 01:02:55;;;;;;;7.57;2.58;;;;;;;;;;4990058;28;20030;-83
2023/01/09 01:08:12;;;;;;;10.20;2.78;;;;;;;;;;4989279;28;20099;-84
2023/01/09 01:10:39;;;;;;;11.65;2.75;;;;;;;;;;5001425;28;20042;-84
2023/01/09 01:13:05;;;;;;;10.43;2.80;;;;;;;;;;4984854;28;20513;-85
2023/01/09 01:15:31;;;;;;;10.38;3.03;;;;;;;;;;4987118;28;20042;-85
2023/01/09 01:17:58;;;;;;;10.60;2.78;;;;;;;;;;4971104;28;20026;-85
2023/01/09 01:20:24;;;;;;;12.23;3.00;;;;;;;;;;4989322;28;20061;-84
2023/01/09 01:22:50;;;;;;;10.90;3.40;;;;;;;;;;4987322;28;20046;-85
2023/01/09 01:25:16;;;;;;;12.70;3.13;;;;;;;;;;4987980;28;20413;-84
2023/01/09 01:27:43;;;;;;;8.55;3.08;;;;;;;;;;4988368;28;20080;-84
2023/01/09 01:30:12;;;;;;;8.93;3.15;;;;;;;;;;4989059;28;20019;-85
2023/01/09 01:32:38;;;;;;;12.10;3.30;;;;;;;;;;4990502;28;20014;-86
2023/01/09 01:35:05;;;;;;;11.23;3.13;;;;;;;;;;4975885;28;20061;-84
2023/01/09 01:37:34;;;;;;;14.85;3.72;;;;;;;;;;4995384;28;20038;-85
2023/01/09 01:40:00;;;;;;;10.25;4.40;;;;;;;;;;4993790;28;20027;-85
2023/01/09 01:42:26;;;;;;;13.45;5.05;;;;;;;;;;4980657;28;20015;-86
2023/01/09 01:44:56;;;;;;;11.07;4.45;;;;;;;;;;4996940;28;20128;-85
2023/01/09 01:47:24;;;;;;;9.55;4.45;;;;;;;;;;4996876;28;20057;-86
2023/01/09 01:49:51;;;;;;;15.10;4.88;;;;;;;;;;5002433;28;20034;-85
2023/01/09 01:52:18;;;;;;;14.70;4.97;;;;;;;;;;5009066;28;20010;-85
2023/01/09 01:54:45;;;;;;;11.55;4.65;;;;;;;;;;4985373;28;20030;-84
2023/01/09 01:57:11;;;;;;;16.15;5.32;;;;;;;;;;5003723;28;20048;-84
2023/01/09 01:59:44;;;;;;;14.32;4.88;;;;;;;;;;5008480;28;20045;-84
2023/01/09 02:02:11;;;;;;;10.35;4.50;;;;;;;;;;5007721;28;20038;-84
2023/01/09 02:04:41;;;;;;;8.35;3.70;;;;;;;;;;5008700;28;20034;-85
2023/01/09 02:07:08;;;;;;;7.33;3.60;;;;;;;;;;4998212;28;20504;-85
2023/01/09 02:09:35;;;;;;;9.77;4.68;;;;;;;;;;5004093;28;20297;-86
2023/01/09 02:12:01;;;;;;;11.93;4.13;;;;;;;;;;4997922;28;20046;-85
2023/01/09 02:14:30;;;;;;;14.73;4.95;;;;;;;;;;4979440;28;20046;-86
2023/01/09 02:17:22;;;;;;;13.43;5.10;;;;;;;;;;4995047;28;20373;-86
2023/01/09 02:19:53;;;;;;;10.32;4.68;;;;;;;;;;4993505;28;20119;-84
2023/01/09 02:22:35;;;;;;;10.30;4.85;;;;;;;;;;4993332;28;20042;-85
2023/01/09 02:25:04;;;;;;;18.67;6.38;;;;;;;;;;4982112;28;20038;-84
2023/01/09 02:27:44;;;;;;;12.02;5.45;;;;;;;;;;4992031;28;20396;-86
2023/01/09 02:30:10;;;;;;;16.13;6.32;;;;;;;;;;4988264;28;20058;-86
2023/01/09 02:32:57;;;;;;;17.33;7.55;;;;;;;;;;4988350;28;20100;-85
2023/01/09 02:35:42;;;;;;;15.60;7.40;;;;;;;;;;4989100;28;20439;-86
2023/01/09 02:38:27;;;;;;;15.70;7.70;;;;;;;;;;4987100;28;20053;-85
2023/01/09 02:41:04;;;;;;;22.30;9.43;;;;;;;;;;4984446;28;20033;-84
2023/01/09 02:43:31;;;;;;;24.77;10.07;;;;;;;;;;4990100;28;20033;-85
2023/01/09 02:45:57;;;;;;;16.42;9.75;;;;;;;;;;4968471;28;20030;-84
2023/01/09 02:48:23;;;;;;;17.05;10.30;;;;;;;;;;4986046;28;20022;-85
2023/01/09 02:51:15;;;;;;;20.58;11.63;;;;;;;;;;4988297;28;20030;-85
2023/01/09 02:53:50;;;;;;;20.95;11.65;;;;;;;;;;4977399;28;20077;-84
2023/01/09 02:56:16;;;;;;;21.17;11.68;;;;;;;;;;5000022;28;20034;-85
2023/01/09 02:58:42;;;;;;;19.73;11.73;;;;;;;;;;4988346;28;20026;-85
2023/01/09 03:01:18;;;;;;;19.83;11.70;;;;;;;;;;4985100;28;20069;-84
2023/01/09 03:03:56;;;;;;;21.35;11.55;;;;;;;;;;5003228;28;20046;-84
2023/01/09 03:06:23;;;;;;;23.10;11.82;;;;;;;;;;4986721;28;20037;-85
2023/01/09 03:08:51;;;;;;;27.73;11.63;;;;;;;;;;4990932;28;20035;-85
2023/01/09 03:11:17;;;;;;;25.50;10.80;;;;;;;;;;4990894;28;20113;-85
2023/01/09 03:13:49;;;;;;;23.40;11.10;;;;;;;;;;4989909;28;20090;-85
2023/01/09 03:16:17;;;;;;;19.45;10.75;;;;;;;;;;5010216;28;20090;-84
2023/01/09 03:18:45;;;;;;;17.30;10.63;;;;;;;;;;5014512;28;20007;-84
2023/01/09 03:21:12;;;;;;;20.00;10.88;;;;;;;;;;5009405;28;20121;-84
2023/01/09 03:23:47;;;;;;;19.00;10.38;;;;;;;;;;5000302;28;20050;-85
2023/01/09 03:26:13;;;;;;;22.73;10.65;;;;;;;;;;5007716;28;20878;-84
2023/01/09 03:28:39;;;;;;;17.58;11.15;;;;;;;;;;5011686;28;20022;-85
2023/01/09 03:31:05;;;;;;;18.55;10.88;;;;;;;;;;5017904;28;20021;-84
2023/01/09 03:33:31;;;;;;;18.48;10.30;;;;;;;;;;5002070;28;20085;-85
2023/01/09 03:35:58;;;;;;;22.02;10.63;;;;;;;;;;4997974;28;20081;-84
2023/01/09 03:38:24;;;;;;;18.45;10.50;;;;;;;;;;5006963;28;20023;-85
2023/01/09 03:40:50;;;;;;;23.65;9.65;;;;;;;;;;5001504;28;20041;-85
2023/01/09 03:43:16;;;;;;;19.70;11.75;;;;;;;;;;4998249;28;20090;-85
2023/01/09 03:45:43;;;;;;;17.63;9.80;;;;;;;;;;5008481;28;20102;-83
2023/01/09 03:48:09;;;;;;;14.75;9.45;;;;;;;;;;5004687;28;20034;-85
2023/01/09 03:50:35;;;;;;;18.33;9.95;;;;;;;;;;4988092;28;20030;-85
2023/01/09 03:53:01;;;;;;;18.42;11.10;;;;;;;;;;4987168;28;20025;-85
2023/01/09 03:55:27;;;;;;;17.45;9.63;;;;;;;;;;4973815;28;20485;-85
2023/01/09 03:57:54;;;;;;;19.65;9.40;;;;;;;;;;4991384;28;20026;-85
2023/01/09 04:00:20;;;;;;;20.95;9.13;;;;;;;;;;4989046;28;20496;-85
2023/01/09 04:02:47;;;;;;;21.15;9.10;;;;;;;;;;4982320;28;20404;-84
2023/01/09 04:05:13;;;;;;;20.27;10.57;;;;;;;;;;4990133;28;20034;-87
2023/01/09 04:07:39;;;;;;;25.52;8.93;;;;;;;;;;4986389;28;20042;-85
2023/01/09 04:10:05;;;;;;;24.77;8.85;;;;;;;;;;4988401;28;20045;-85
2023/01/09 04:12:31;;;;;;;21.45;8.63;;;;;;;;;;4989560;28;20034;-85
2023/01/09 04:14:57;;;;;;;20.75;8.40;;;;;;;;;;4989601;28;20109;-85
2023/01/09 04:17:24;;;;;;;18.00;8.02;;;;;;;;;;4992566;28;20065;-84
2023/01/09 04:19:50;;;;;;;25.92;8.63;;;;;;;;;;4988999;28;20030;-86
2023/01/09 04:22:16;;;;;;;20.33;7.82;;;;;;;;;;4988686;28;20436;-85
2023/01/09 04:24:42;;;;;;;16.13;8.00;;;;;;;;;;4986831;28;20173;-85
2023/01/09 04:27:08;;;;;;;13.52;6.80;;;;;;;;;;4991289;28;20074;-85
2023/01/09 04:29:34;;;;;;;17.38;7.88;;;;;;;;;;4993802;28;20038;-86
2023/01/09 04:32:01;;;;;;;15.73;7.85;;;;;;;;;;4997070;28;20093;-84
2023/01/09 04:34:27;;;;;;;16.90;7.03;;;;;;;;;;4999289;28;20125;-84
2023/01/09 04:36:53;;;;;;;17.80;6.78;;;;;;;;;;4985608;28;20038;-85
2023/01/09 04:39:20;;;;;;;15.57;6.43;;;;;;;;;;5003109;28;20065;-85
2023/01/09 04:41:49;;;;;;;16.60;6.45;;;;;;;;;;5004707;28;20097;-84
2023/01/09 04:44:16;;;;;;;24.02;6.90;;;;;;;;;;5003893;28;20473;-85
2023/01/09 04:46:42;;;;;;;18.02;7.65;;;;;;;;;;5002251;28;20164;-86
2023/01/09 04:49:09;;;;;;;15.48;5.65;;;;;;;;;;4998860;28;20037;-85
2023/01/09 04:51:35;;;;;;;22.27;6.45;;;;;;;;;;4991716;28;20031;-86
2023/01/09 04:54:01;;;;;;;13.80;6.05;;;;;;;;;;5001392;28;20412;-86
2023/01/09 04:56:27;;;;;;;16.58;6.03;;;;;;;;;;5004297;28;20034;-85
2023/01/09 04:58:53;;;;;;;12.23;5.28;;;;;;;;;;5000583;28;20113;-86
2023/01/09 05:01:20;;;;;;;10.80;5.15;;;;;;;;;;4976262;28;20104;-86
2023/01/09 05:03:46;;;;;;;13.30;6.47;;;;;;;;;;4993491;28;20079;-85
2023/01/09 05:06:12;;;;;;;16.55;5.47;;;;;;;;;;4997142;28;20041;-86
2023/01/09 05:08:38;;;;;;;13.38;5.45;;;;;;;;;;4995832;28;20054;-86
2023/01/09 05:11:05;;;;;;;10.70;5.05;;;;;;;;;;4984311;28;20038;-86
2023/01/09 05:13:33;;;;;;;8.30;4.65;;;;;;;;;;4997483;28;20149;-86
2023/01/09 05:15:59;;;;;;;10.20;4.97;;;;;;;;;;4990825;28;20034;-85
2023/01/09 05:18:25;;;;;;;11.88;4.80;;;;;;;;;;4999076;28;20163;-84
2023/01/09 05:20:51;;;;;;;10.80;4.45;;;;;;;;;;4990742;28;20038;-86
2023/01/09 05:23:17;;;;;;;13.55;4.35;;;;;;;;;;5009326;28;20097;-85
2023/01/09 05:25:43;;;;;;;17.30;5.10;;;;;;;;;;5003206;28;20504;-84
2023/01/09 05:28:10;;;;;;;11.70;4.22;;;;;;;;;;4995769;28;20592;-86
2023/01/09 05:30:36;;;;;;;22.15;4.82;;;;;;;;;;4992369;28;20026;-85
2023/01/09 05:33:02;;;;;;;12.80;4.13;;;;;;;;;;4993107;28;20041;-85
2023/01/09 05:35:28;;;;;;;13.70;3.97;;;;;;;;;;4988606;28;20085;-85
2023/01/09 05:37:55;;;;;;;13.15;3.85;;;;;;;;;;5000458;28;20030;-86
2023/01/09 05:40:21;;;;;;;11.30;3.58;;;;;;;;;;4999225;28;20038;-84
2023/01/09 05:42:48;;;;;;;8.85;4.20;;;;;;;;;;4987406;28;20027;-84
2023/01/09 05:45:14;;;;;;;7.72;3.42;;;;;;;;;;5009114;28;20407;-85
2023/01/09 05:47:40;;;;;;;7.78;4.10;;;;;;;;;;5008778;28;20030;-85
2023/01/09 05:50:06;;;;;;;13.35;3.50;;;;;;;;;;5016032;28;20022;-85
2023/01/09 05:52:33;;;;;;;15.85;4.15;;;;;;;;;;4992163;28;20025;-85
2023/01/09 05:54:59;;;;;;;12.38;3.85;;;;;;;;;;5003915;28;20034;-86
2023/01/09 05:57:26;;;;;;;13.73;3.30;;;;;;;;;;4980543;28;20155;-86
2023/01/09 05:59:52;;;;;;;9.23;3.15;;;;;;;;;;4991845;28;20185;-86
2023/01/09 06:02:18;;;;;;;14.95;3.40;;;;;;;;;;4988118;28;20018;-85
2023/01/09 06:04:44;;;;;;;13.48;3.67;;;;;;;;;;4972764;28;20034;-85
2023/01/09 06:07:10;;;;;;;9.52;3.63;;;;;;;;;;4987427;28;20038;-84
2023/01/09 06:09:37;;;;;;;12.32;3.35;;;;;;;;;;4993264;28;20053;-85
2023/01/09 06:12:03;;;;;;;14.52;3.83;;;;;;;;;;5007878;28;20035;-85
2023/01/09 06:14:29;;;;;;;11.77;3.42;;;;;;;;;;4988942;28;20030;-83
2023/01/09 06:16:55;;;;;;;14.60;4.20;;;;;;;;;;4987800;28;20038;-85
2023/01/09 06:19:21;;;;;;;10.63;3.42;;;;;;;;;;4986473;28;20126;-85
2023/01/09 06:21:47;;;;;;;17.13;4.07;;;;;;;;;;4971983;28;20031;-87
2023/01/09 06:24:14;;;;;;;12.35;3.38;;;;;;;;;;4988124;28;20138;-84
2023/01/09 06:26:40;;;;;;;18.13;4.88;;;;;;;;;;5000855;28;20125;-84
2023/01/09 06:29:06;;;;;;;13.60;4.07;;;;;;;;;;4987220;28;20045;-83
2023/01/09 06:31:33;;;;;;;9.27;3.90;;;;;;;;;;4985869;28;20057;-82
2023/01/09 06:33:59;;;;;;;13.95;4.40;;;;;;;;;;4989574;28;20066;-82
2023/01/09 06:36:26;;;;;;;13.50;3.97;;;;;;;;;;4982801;28;20443;-85
2023/01/09 06:38:52;;;;;;;17.30;4.30;;;;;;;;;;4998378;28;20031;-84
2023/01/09 06:41:19;;;;;;;16.88;5.07;;;;;;;;;;4986091;28;20085;-82
2023/01/09 06:43:45;;;;;;;13.32;5.78;;;;;;;;;;4986150;28;20018;-84
2023/01/09 06:46:11;;;;;;;16.85;3.92;;;;;;;;;;4986139;28;20484;-83
2023/01/09 06:48:37;;;;;;;11.60;4.10;;;;;;;;;;4987246;28;20046;-82
2023/01/09 06:51:04;;;;;;;17.50;4.20;;;;;;;;;;5001252;28;20047;-82
2023/01/09 06:53:30;;;;;;;12.30;5.05;;;;;;;;;;4968800;28;20181;-83
2023/01/09 06:55:56;;;;;;;14.88;5.35;;;;;;;;;;4996063;28;20036;-83
2023/01/09 06:58:22;;;;;;;17.15;5.10;;;;;;;;;;4983838;28;20058;-82
2023/01/09 07:00:48;;;;;;;17.77;5.93;;;;;;;;;;4988765;28;20043;-82
2023/01/09 07:03:20;;;;;;;13.85;5.88;;;;;;;;;;4995103;28;20034;-84
2023/01/09 07:05:47;;;;;;;13.73;5.18;;;;;;;;;;4974176;28;20023;-87
2023/01/09 07:08:13;;;;;;;13.43;5.40;;;;;;;;;;4961896;28;20058;-86
2023/01/09 07:10:40;;;;;;;14.02;5.18;;;;;;;;;;4999571;28;20030;-85
2023/01/09 07:13:06;;;;;;;15.27;6.53;;;;;;;;;;4998806;28;20049;-87
2023/01/09 07:15:32;;;;;;;15.65;6.20;;;;;;;;;;4993372;28;20037;-86
2023/01/09 07:17:59;;;;;;;19.60;6.38;;;;;;;;;;4991602;28;20049;-88
2023/01/09 07:20:25;;;;;;;23.90;8.55;;;;;;;;;;4994931;28;20095;-83
2023/01/09 07:22:52;;;;;;;14.82;6.65;;;;;;;;;;4993658;28;20376;-83
2023/01/09 07:25:18;;;;;;;14.38;7.13;;;;;;;;;;4994772;28;20518;-84
2023/01/09 07:27:44;;;;;;;17.75;7.75;;;;;;;;;;4996354;28;20049;-86
2023/01/09 07:30:11;;;;;;;17.10;7.85;;;;;;;;;;4978050;28;20499;-84
2023/01/09 07:32:39;;;;;;;18.10;8.23;;;;;;;;;;4994142;28;20114;-86
2023/01/09 07:35:05;;;;;;;18.58;8.07;;;;;;;;;;4999209;28;20102;-85
2023/01/09 07:37:33;;;;;;;21.00;8.95;;;;;;;;;;4979071;28;20375;-85
2023/01/09 07:39:59;;;;;;;20.77;8.13;;;;;;;;;;4997509;28;20506;-88
2023/01/09 07:42:25;;;;;;;19.13;8.65;;;;;;;;;;4978323;28;20041;-84
2023/01/09 07:44:52;;;;;;;19.35;8.85;;;;;;;;;;4997211;28;20220;-87
2023/01/09 07:47:18;;;;;;;19.20;9.73;;;;;;;;;;4973166;28;20036;-86
2023/01/09 07:49:44;;;;;;;18.73;9.25;;;;;;;;;;4993816;28;20599;-86
2023/01/09 07:52:10;;;;;;;21.42;10.05;;;;;;;;;;4995828;28;20247;-87
2023/01/09 07:54:36;;;;;;;17.63;8.68;;;;;;;;;;5010159;28;20038;-86
2023/01/09 07:57:03;;;;;;;20.50;9.45;;;;;;;;;;4983174;28;20113;-86
2023/01/09 07:59:29;;;;;;;21.85;8.77;;;;;;;;;;4995072;28;20030;-87
2023/01/09 08:01:55;;;;;;;16.73;7.30;;;;;;;;;;4977186;28;20096;-86
2023/01/09 08:04:22;;;;;;;15.13;7.70;;;;;;;;;;4996697;28;20461;-87
2023/01/09 08:06:48;;;;;;;18.00;7.55;;;;;;;;;;4996889;28;20039;-87
2023/01/09 08:09:14;;;;;;;16.05;6.75;;;;;;;;;;4996553;28;20217;-85
2023/01/09 08:11:41;;;;;;;11.98;7.05;;;;;;;;;;4995278;28;20100;-85
2023/01/09 08:14:07;;;;;;;14.55;5.63;;;;;;;;;;4995678;28;20084;-85
2023/01/09 08:16:33;;;;;;;12.80;5.75;;;;;;;;;;4992446;28;20163;-86
2023/01/09 08:18:59;;;;;;;13.85;5.60;;;;;;;;;;4996326;28;20031;-91
2023/01/09 08:21:25;;;;;;;11.35;4.85;;;;;;;;;;4998386;28;20101;-86
2023/01/09 08:23:51;;;;;;;13.60;4.65;;;;;;;;;;4997487;28;20043;-85
2023/01/09 08:26:18;;;;;;;14.00;4.68;;;;;;;;;;4997534;28;20026;-86
2023/01/09 08:28:44;;;;;;;11.95;4.07;;;;;;;;;;5000625;28;20030;-84
2023/01/09 08:31:10;;;;;;;10.77;3.63;;;;;;;;;;5004220;28;20037;-85
2023/01/09 08:33:37;;;;;;;9.10;4.40;;;;;;;;;;4999889;28;20365;-86
2023/01/09 08:36:03;;;;;;;9.68;3.60;;;;;;;;;;5002142;28;20042;-85
2023/01/09 08:38:29;;;;;;;15.20;3.53;;;;;;;;;;5002470;28;20023;-87
2023/01/09 08:40:55;;;;;;;11.65;3.22;;;;;;;;;;5002724;28;20049;-85
2023/01/09 08:48:58;;;;;;;11.20;3.55;;;;;;;;;;5009657;28;20037;-86
2023/01/09 08:51:24;;;;;;;7.60;1.70;;;;;;;;;;5011442;28;20467;-86
2023/01/09 08:53:50;;;;;;;5.00;1.77;;;;;;;;;;4996189;28;20049;-87
2023/01/09 08:56:16;;;;;;;9.30;1.85;;;;;;;;;;5012010;28;20078;-84
2023/01/09 08:58:43;;;;;;;7.88;1.70;;;;;;;;;;5001298;28;20035;-85
2023/01/09 09:01:10;;;;;;;7.82;2.17;;;;;;;;;;5008543;28;20061;-87
2023/01/09 09:03:36;;;;;;;10.68;2.15;;;;;;;;;;4987736;28;20027;-86
2023/01/09 09:06:02;;;;;;;12.38;2.88;;;;;;;;;;5002662;28;20065;-85
2023/01/09 09:08:28;;;;;;;11.32;2.25;;;;;;;;;;4998934;28;20125;-85
2023/01/09 09:10:56;;;;;;;11.82;2.40;;;;;;;;;;5002797;28;20045;-87
2023/01/09 09:13:22;;;;;;;13.70;2.50;;;;;;;;;;4999858;28;20045;-87
2023/01/09 09:15:48;;;;;;;12.20;2.10;;;;;;;;;;4979727;28;20109;-86
2023/01/09 09:18:14;;;;;;;18.83;2.70;;;;;;;;;;4994797;28;20057;-85
2023/01/09 09:20:40;;;;;;;15.43;2.65;;;;;;;;;;4991014;28;20093;-87
2023/01/09 09:23:07;;;;;;;17.60;2.58;;;;;;;;;;4993066;28;20034;-85
2023/01/09 09:25:33;;;;;;;16.98;2.90;;;;;;;;;;4989742;28;20113;-86
2023/01/09 09:27:59;;;;;;;18.95;2.40;;;;;;;;;;4985127;28;20111;-86
2023/01/09 09:30:26;;;;;;;17.70;3.67;;;;;;;;;;4986017;28;20249;-85
2023/01/09 09:32:52;;;;;;;10.10;1.80;;;;;;;;;;4980160;28;20034;-85
2023/01/09 09:35:19;;;;;;;11.93;1.92;;;;;;;;;;4988455;28;20030;-88
2023/01/09 09:37:56;;;;;;;11.13;1.45;;;;;;;;;;4986241;28;20030;-88
2023/01/09 09:40:29;;;;;;;6.45;1.60;;;;;;;;;;4985656;28;20030;-88
2023/01/09 09:45:52;;;;;;;13.77;3.00;;;;;;;;;;4983833;28;20125;-85
2023/01/09 09:48:18;;;;;;;13.23;3.45;;;;;;;;;;4990169;28;20068;-84
2023/01/09 09:50:44;;;;;;;17.75;2.22;;;;;;;;;;4988133;28;20030;-84
2023/01/09 09:53:15;;;;;;;20.60;3.28;;;;;;;;;;4983333;28;20027;-86
2023/01/09 09:55:44;;;;;;;20.77;2.80;;;;;;;;;;4987932;28;20144;-86
2023/01/09 09:58:30;;;;;;;22.00;3.50;;;;;;;;;;4987644;28;20014;-87
2023/01/09 10:00:57;;;;;;;26.30;3.40;;;;;;;;;;4977530;28;20177;-87
2023/01/09 10:03:24;;;;;;;27.48;4.00;;;;;;;;;;4990459;28;20136;-87
2023/01/09 10:05:51;;;;;;;30.77;4.28;;;;;;;;;;4990841;28;20416;-86
2023/01/09 10:08:23;;;;;;;26.05;4.72;;;;;;;;;;4988364;28;20037;-87
2023/01/09 10:10:53;;;;;;;32.70;5.13;;;;;;;;;;4989084;28;20045;-87
2023/01/09 10:16:07;;;;;;;25.10;4.88;;;;;;;;;;4987070;28;20034;-87
2023/01/09 10:18:58;;;;;;;23.13;3.58;;;;;;;;;;4988215;28;20052;-87
2023/01/09 10:21:40;;;;;;;29.65;4.28;;;;;;;;;;4987094;28;20026;-88
2023/01/09 10:24:06;;;;;;;18.52;2.97;;;;;;;;;;4989030;28;20463;-88
2023/01/09 10:26:35;;;;;;;13.23;3.00;;;;;;;;;;4989262;28;20114;-88
2023/01/09 10:29:11;;;;;;;21.33;4.97;;;;;;;;;;4995440;28;20037;-88
2023/01/09 10:31:40;;;;;;;16.48;2.75;;;;;;;;;;4998254;28;20052;-88
2023/01/09 10:34:06;;;;;;;14.35;2.10;;;;;;;;;;4999636;28;20026;-88
2023/01/09 10:36:42;;;;;;;13.38;2.00;;;;;;;;;;5001057;28;20030;-87
2023/01/09 10:39:11;;;;;;;12.43;2.22;;;;;;;;;;5002934;28;20018;-87
2023/01/09 10:41:39;;;;;;;11.68;2.22;;;;;;;;;;5006674;28;20030;-86
2023/01/09 10:44:08;;;;;;;9.93;1.98;;;;;;;;;;5005164;28;20021;-92
2023/01/09 10:46:48;;;;;;;12.60;2.45;;;;;;;;;;4987677;28;20033;-86
2023/01/09 10:49:16;;;;;;;11.13;2.63;;;;;;;;;;5001307;28;20531;-87
2023/01/09 10:51:47;;;;;;;9.13;2.63;;;;;;;;;;4998441;28;20031;-89
2023/01/09 11:48:32;;;;;;;18.63;3.70;;;;;;;8.25;100.00;99643.72;5062320;27;1353893;-77
2023/01/09 11:51:02;;;;;;;16.98;3.70;;;;;;;8.18;100.00;99658.34;5085907;28;20031;-77
2023/01/09 11:53:28;;;;;;;25.50;3.80;;;;;;;8.01;100.00;99649.66;5068100;28;20028;-78
2023/01/09 11:56:02;;;;;;;25.65;3.65;;;;;;;7.92;100.00;99655.53;5053373;28;20070;-76
2023/01/09 11:58:34;;;;;;;18.65;3.30;;;;;;;7.77;100.00;99657.38;5064649;28;20631;-76
2023/01/09 12:01:28;;;;;;;21.63;3.60;;;;;;;7.71;100.00;99653.28;5053835;28;20112;-76
2023/01/09 12:04:16;;;;;;;19.52;3.75;;;;;;;7.57;100.00;99654.16;5075924;28;20046;-76
2023/01/09 12:06:42;;;;;;;23.20;5.43;;;;;;;7.47;100.00;99657.47;5077245;28;20086;-76
2023/01/09 12:09:47;;;;;;;19.63;3.70;;;;;;;7.53;100.00;99671.25;5067841;28;20512;-76
2023/01/09 12:12:34;;;;;;;32.47;6.10;;;;;;;7.71;100.00;99676.34;4961431;28;20108;-76
2023/01/09 12:15:06;;;;;;;28.45;5.65;;;;;;;7.82;100.00;99683.66;4952409;28;20515;-76
2023/01/09 12:17:49;;;;;;;24.77;4.05;;;;;;;7.97;100.00;99686.19;5044231;28;20063;-77
2023/01/09 12:20:21;;;;;;;25.38;5.90;;;;;;;8.07;100.00;99689.16;5086529;28;20033;-77
2023/01/09 12:23:28;;;;;;;25.67;5.38;;;;;;;8.06;100.00;99683.91;5063991;28;20482;-75
2023/01/09 12:25:54;;;;;;;19.45;3.88;;;;;;;8.02;100.00;99677.94;5062689;28;20082;-78
2023/01/09 12:28:48;;;;;;;18.05;3.47;;;;;;;8.17;100.00;99684.09;5080047;28;20028;-78
2023/01/09 12:31:27;;;;;;;25.50;4.70;;;;;;;8.20;100.00;99685.69;5084673;28;20036;-76
2023/01/09 12:34:12;;;;;;;18.40;3.80;;;;;;;8.20;100.00;99686.56;5080231;28;20185;-76
2023/01/09 12:36:41;;;;;;;18.80;4.88;;;;;;;8.20;100.00;99683.03;5062542;28;20067;-77
2023/01/09 12:39:23;;;;;;;19.58;3.38;;;;;;;8.29;100.00;99685.09;5077837;28;20097;-78
2023/01/09 12:42:28;;;;;;;17.58;3.67;;;;;;;8.31;100.00;99692.03;5059881;28;20051;-78
2023/01/09 12:44:59;;;;;;;20.95;4.13;;;;;;;8.18;100.00;99687.59;5061152;28;20050;-77
2023/01/09 12:47:40;;;;;;;18.70;3.72;;;;;;;8.17;100.00;99688.56;5053555;28;20503;-77
2023/01/09 12:50:17;;;;;;;;;;;;;;;8.18;100.00;99700.88;5037391;28;20041;-76
2023/01/09 12:52:48;;;;;;;20.98;4.30;;;;;;;8.17;100.00;99697.38;5033426;28;20443;-77
2023/01/09 12:55:18;;;;;;;18.38;3.75;;;;;;;8.14;100.00;99703.75;5052429;28;20032;-76
2023/01/09 12:57:50;;;;;;;27.53;4.63;;;;;;;8.20;100.00;99698.97;5024598;28;20041;-77
2023/01/09 13:00:20;;;;;;;20.10;3.95;;;;;;;8.10;100.00;99707.53;5045504;28;20048;-77
2023/01/09 13:03:01;;;;;;;22.35;3.45;;;;;;;8.06;100.00;99719.31;5067846;28;20056;-77
2023/01/09 13:05:38;;;;;;;16.58;3.17;;;;;;;8.06;100.00;99706.03;5029882;28;20453;-76
2023/01/09 13:08:17;;;;;;;23.40;3.60;;;;;;;8.05;100.00;99708.78;5047945;28;20111;-76
2023/01/09 13:10:50;;;;;;;22.88;4.13;;;;;;;8.16;100.00;99714.28;5036734;28;20040;-77
2023/01/09 13:13:29;;;;;;;20.58;4.22;;;;;;;8.29;100.00;99714.34;5046291;28;20072;-76
2023/01/09 13:16:03;;;;;;;19.05;3.28;;;;;;;8.51;100.00;99727.16;5047288;28;20040;-77
2023/01/09 13:18:51;;;;;;;21.83;3.67;;;;;;;9.06;100.00;99728.84;5026878;28;20051;-77
2023/01/09 13:21:17;;;;;;;24.80;3.35;;;;;;;9.81;100.00;99730.84;5026322;28;20029;-77
2023/01/09 13:24:06;;;;;;;19.58;3.90;;;;;;;9.66;100.00;99732.75;5045886;28;20395;-77
2023/01/09 13:26:36;;;;;;;17.25;3.42;;;;;;;9.37;100.00;99741.91;5064873;28;20485;-77
2023/01/09 13:29:16;;;;;;;21.75;3.92;;;;;;;9.20;100.00;99741.22;5044935;28;20036;-76
2023/01/09 13:32:17;;;;;;;16.70;2.95;;;;;;;8.84;100.00;99761.34;5057168;28;20513;-76
2023/01/09 13:34:45;;;;;;;23.63;3.60;;;;;;;8.76;100.00;99760.13;5033509;28;20044;-76
2023/01/09 13:37:22;;;;;;;20.38;3.17;;;;;;;8.48;100.00;99754.81;5049812;28;20036;-77
2023/01/09 13:39:59;;;;;;;21.65;3.65;;;;;;;8.37;100.00;99751.97;5059844;28;20032;-74
2023/01/09 13:42:34;;;;;;;23.67;3.83;;;;;;;8.45;100.00;99760.31;5046942;28;20689;-77
2023/01/09 13:45:23;;;;;;;13.20;3.40;;;;;;;8.61;100.00;99764.66;5061334;28;20368;-77
2023/01/09 13:48:10;;;;;;;16.75;3.08;;;;;;;8.65;100.00;99772.34;5042032;28;20112;-76
2023/01/09 13:50:41;;;;;;;16.90;3.83;;;;;;;8.68;100.00;99773.94;5042431;28;20525;-76
2023/01/09 13:53:23;;;;;;;27.33;3.97;;;;;;;8.46;100.00;99779.78;5044323;28;20406;-77
2023/01/09 13:56:02;;;;;;;27.98;4.45;;;;;;;8.68;100.00;99789.91;5054530;28;20036;-76
2023/01/09 13:58:37;;;;;;;17.63;3.90;;;;;;;9.06;100.00;99791.91;5065933;28;20032;-75
2023/01/09 14:01:23;;;;;;;20.73;3.15;;;;;;;9.21;100.00;99801.53;5062146;28;20040;-74
2023/01/09 14:04:08;;;;;;;29.60;3.97;;;;;;;9.47;100.00;99801.59;5064114;28;20066;-76
2023/01/09 14:06:35;;;;;;;23.73;3.50;;;;;;;9.56;100.00;99810.75;5048178;28;20129;-76
2023/01/09 14:09:19;;;;;;;21.73;3.05;;;;;;;9.61;100.00;99809.50;5044149;28;20034;-77
2023/01/09 14:11:46;;;;;;;20.42;3.53;;;;;;;9.52;100.00;99804.78;5062254;28;20032;-78
2023/01/09 14:14:27;;;;;;;14.65;3.13;;;;;;;9.09;100.00;99813.81;5036037;28;20060;-77
2023/01/09 14:16:54;;;;;;;;;;;;;;;8.99;100.00;99822.53;5051896;28;20063;-76
2023/01/09 14:19:36;;;;;;;27.63;3.88;;;;;;;8.76;100.00;99824.88;5055106;28;19934;-77
2023/01/09 14:22:04;;;;;;;23.90;2.72;;;;;;;8.84;100.00;99825.22;5067949;28;20036;-78
2023/01/09 14:24:45;;;;;;;17.30;3.00;;;;;;;8.77;100.00;99839.88;5048407;28;20364;-77
2023/01/09 14:27:48;;;;;;;20.27;4.72;;;;;;;8.73;100.00;99857.00;5067544;28;20052;-77
2023/01/09 14:30:31;;;;;;;18.58;3.55;;;;;;;8.53;100.00;99863.56;5061560;28;20062;-77
2023/01/09 14:33:12;;;;;;;19.55;3.00;;;;;;;8.34;100.00;99869.16;5062350;28;20039;-77
2023/01/09 14:35:52;;;;;;;14.88;3.33;;;;;;;8.24;100.00;99874.19;5063959;28;20180;-77
2023/01/09 14:38:41;;;;;;;22.85;3.33;;;;;;;8.42;100.00;99882.00;5057910;28;20044;-77
2023/01/09 14:44:42;;;;;;;15.27;3.08;;;;;;;8.76;100.00;99902.06;5039554;28;20036;-77
2023/01/09 14:47:31;;;;;;;16.33;3.03;;;;;;;8.68;100.00;99901.66;5046024;28;20043;-77
2023/01/09 14:50:21;;;;;;;19.92;4.43;;;;;;;8.87;100.00;99912.88;5045797;28;20452;-77
2023/01/09 14:52:48;;;;;;;24.33;3.60;;;;;;;9.10;100.00;99921.19;5048109;28;20429;-77
2023/01/09 14:55:21;;;;;;;21.73;3.15;;;;;;;9.12;100.00;99924.63;5056657;28;20398;-78
2023/01/09 14:57:51;;;;;;;22.67;3.65;;;;;;;9.03;100.00;99931.38;5030082;28;20033;-77
2023/01/09 15:00:18;;;;;;;32.92;4.00;;;;;;;9.06;100.00;99941.84;5057535;28;20036;-77
2023/01/09 15:02:45;;;;;;;14.90;2.58;;;;;;;9.08;100.00;99945.25;5053828;28;20414;-77
2023/01/09 15:05:15;;;;;;;24.80;3.88;;;;;;;8.96;100.00;99955.81;5064340;28;20488;-77
2023/01/09 15:07:52;;;;;;;15.57;2.92;;;;;;;8.83;100.00;99961.91;5050287;28;20040;-76
2023/01/09 15:10:33;;;;;;;20.20;3.42;;;;;;;8.62;100.00;99968.56;5057796;28;20447;-76